Terminal Aerodrome Forecast
Issued by NWS

Home | Current Version | Previous Version | Text Only | Print | Product List | Glossary On
Versions: 1 2 3 4 5 6 7 8 9 10 11 12 13 14 15 16 17 18 19 20 21 22 23 24 25 26 27
887
FTUS43 KLSX 230538 AAB
TAFSUS
TAF AMD
KSUS 230538Z 2306/2406 14005KT 3SM BR OVC007
     FM230900 23004KT 3SM BR OVC005
     FM231500 28006KT P6SM OVC007
     FM240000 00000KT P6SM OVC015
     FM240500 06006KT P6SM SHRA OVC015=

USA.gov is the U.S. government's official web portal to all federal, state and local government web resources and services.